createdAt,value
2023-01-26T00:04:09.816Z,19.30
2023-01-26T00:09:14.753Z,18.40
2023-01-26T00:14:22.041Z,17.80
2023-01-26T00:19:23.889Z,15.80
2023-01-26T00:24:25.898Z,16.50
2023-01-26T00:29:27.666Z,18.50
2023-01-26T00:34:32.696Z,16.90
2023-01-26T00:39:34.452Z,17.80
2023-01-26T00:44:38.723Z,16.80
2023-01-26T00:49:40.461Z,17.90
2023-01-26T00:54:42.192Z,21.00
2023-01-26T00:59:43.856Z,20.40
2023-01-26T01:09:54.052Z,22.30
2023-01-26T01:14:55.770Z,19.40
2023-01-26T01:19:58.831Z,19.90
2023-01-26T01:25:00.521Z,18.60
2023-01-26T01:30:08.074Z,21.80
2023-01-26T01:35:10.075Z,18.40
2023-01-26T01:40:13.436Z,18.80
2023-01-26T01:45:27.694Z,18.40
2023-01-26T01:50:34.619Z,17.30
2023-01-26T01:55:36.670Z,20.80
2023-01-26T02:00:39.166Z,15.50
2023-01-26T02:05:48.934Z,15.80
2023-01-26T02:10:54.893Z,18.40
2023-01-26T02:15:59.563Z,20.10
2023-01-26T02:21:07.631Z,17.00
2023-01-26T02:26:21.134Z,19.70
2023-01-26T02:31:25.494Z,22.50
2023-01-26T02:36:31.056Z,23.00
2023-01-26T02:41:52.006Z,21.20
2023-01-26T02:46:55.101Z,21.70
2023-01-26T02:51:57.241Z,20.50
2023-01-26T02:56:59.123Z,22.00
2023-01-26T03:02:01.301Z,21.90
2023-01-26T03:07:03.179Z,23.20
2023-01-26T03:12:05.172Z,20.70
2023-01-26T03:17:06.972Z,23.60
2023-01-26T03:22:29.060Z,22.50
2023-01-26T03:27:40.692Z,22.90
2023-01-26T03:32:42.991Z,22.00
2023-01-26T03:37:54.538Z,23.70
2023-01-26T03:43:28.555Z,24.00
2023-01-26T03:48:49.515Z,22.80
2023-01-26T03:54:10.631Z,22.20
2023-01-26T03:59:15.303Z,24.60
2023-01-26T04:04:36.017Z,24.60
2023-01-26T04:09:39.663Z,24.80
2023-01-26T04:15:00.530Z,24.20
2023-01-26T04:20:21.972Z,20.30
2023-01-26T04:25:23.906Z,27.40
2023-01-26T04:30:26.218Z,28.60
2023-01-26T04:35:30.113Z,31.00
2023-01-26T04:40:32.097Z,34.00
2023-01-26T04:45:34.014Z,29.30
2023-01-26T04:50:36.640Z,31.00
2023-01-26T04:55:38.437Z,30.30
2023-01-26T05:00:40.353Z,28.90
2023-01-26T05:05:42.382Z,29.20
2023-01-26T05:10:45.151Z,31.10
2023-01-26T05:15:54.641Z,27.40
2023-01-26T05:21:12.745Z,28.40
2023-01-26T05:26:19.211Z,24.10
2023-01-26T05:31:32.497Z,24.60
2023-01-26T05:36:34.394Z,25.10
2023-01-26T05:41:36.227Z,28.30
2023-01-26T05:46:53.378Z,28.10
2023-01-26T05:51:55.870Z,27.00
2023-01-26T05:56:58.437Z,28.30
2023-01-26T06:02:02.183Z,24.20
2023-01-26T06:07:04.533Z,24.60
2023-01-26T06:12:19.976Z,24.80
2023-01-26T06:17:30.609Z,26.20
2023-01-26T06:22:35.111Z,23.40
2023-01-26T06:27:42.068Z,23.10
2023-01-26T06:32:50.606Z,24.70
2023-01-26T06:37:53.579Z,26.50
2023-01-26T06:42:55.612Z,26.20
2023-01-26T06:47:57.704Z,26.00
2023-01-26T06:53:02.950Z,28.50
2023-01-26T06:58:12.113Z,25.60
2023-01-26T07:03:50.276Z,31.30
2023-01-26T07:08:51.971Z,38.00
2023-01-26T07:13:53.719Z,31.10
2023-01-26T07:18:55.841Z,31.50
2023-01-26T07:23:57.922Z,29.10
2023-01-26T07:28:59.612Z,30.30
2023-01-26T07:39:03.673Z,31.10
2023-01-26T07:44:09.921Z,33.50
2023-01-26T07:49:12.786Z,28.00
2023-01-26T07:54:14.657Z,30.80
2023-01-26T07:59:16.312Z,28.00
2023-01-26T08:09:20.353Z,22.40
2023-01-26T08:14:22.137Z,21.80
2023-01-26T08:19:23.822Z,21.40
2023-01-26T08:24:26.874Z,23.80
2023-01-26T08:29:28.646Z,28.70
2023-01-26T08:34:30.372Z,28.70
2023-01-26T08:39:32.066Z,23.10
2023-01-26T08:44:33.784Z,23.40
2023-01-26T08:49:35.532Z,22.90
2023-01-26T08:54:37.261Z,23.20
2023-01-26T08:59:39.085Z,23.70
2023-01-26T09:04:40.794Z,29.00
2023-01-26T09:09:42.511Z,28.20
2023-01-26T09:14:44.255Z,25.90
2023-01-26T09:19:45.906Z,28.80
2023-01-26T09:24:47.606Z,31.10
2023-01-26T09:29:49.435Z,28.10
2023-01-26T09:34:51.323Z,30.00
2023-01-26T09:39:53.007Z,28.90
2023-01-26T09:45:06.900Z,31.80
2023-01-26T09:50:18.065Z,28.20
2023-01-26T09:55:22.156Z,27.40
2023-01-26T10:00:45.460Z,24.90
2023-01-26T10:06:14.580Z,25.20
2023-01-26T10:11:44.944Z,25.20
2023-01-26T10:16:53.155Z,27.00
2023-01-26T10:21:59.400Z,27.80
2023-01-26T10:27:01.191Z,27.80
2023-01-26T10:32:03.726Z,29.50
2023-01-26T10:37:30.732Z,26.50
2023-01-26T10:42:35.002Z,25.60
2023-01-26T10:47:37.446Z,27.60
2023-01-26T10:52:56.239Z,27.90
2023-01-26T10:57:58.477Z,30.60
2023-01-26T11:03:06.151Z,28.50
2023-01-26T11:08:33.755Z,28.40
2023-01-26T11:13:35.476Z,29.30
2023-01-26T11:18:56.044Z,29.20
2023-01-26T11:24:02.734Z,28.60
2023-01-26T11:29:17.537Z,28.50
2023-01-26T11:34:43.925Z,34.60
2023-01-26T11:40:04.919Z,28.40
2023-01-26T11:45:26.157Z,30.70
2023-01-26T11:50:30.943Z,31.80
2023-01-26T11:56:07.841Z,29.80
2023-01-26T12:01:55.854Z,30.00
2023-01-26T12:07:06.840Z,27.60
2023-01-26T12:12:32.489Z,27.70
2023-01-26T12:17:40.573Z,28.90
2023-01-26T12:22:49.555Z,29.10
2023-01-26T12:28:16.919Z,31.20
2023-01-26T12:33:19.490Z,28.10
2023-01-26T12:38:43.075Z,33.70
2023-01-26T12:44:10.085Z,31.30
2023-01-26T12:49:20.937Z,31.50
2023-01-26T12:54:40.930Z,34.90
2023-01-26T12:59:46.986Z,30.00
2023-01-26T13:04:51.033Z,31.50
2023-01-26T13:10:10.076Z,31.50
2023-01-26T13:15:14.973Z,30.50
2023-01-26T13:20:43.305Z,29.60
2023-01-26T13:26:10.043Z,30.50
2023-01-26T13:31:13.350Z,29.90
2023-01-26T13:36:19.073Z,30.60
2023-01-26T13:41:21.444Z,31.10
2023-01-26T13:46:45.160Z,31.50
2023-01-26T13:51:49.949Z,31.90
2023-01-26T13:57:06.564Z,29.00
2023-01-26T14:02:22.833Z,29.80
2023-01-26T14:07:40.900Z,31.70
2023-01-26T14:12:47.166Z,31.50
2023-01-26T14:17:52.570Z,30.10
2023-01-26T14:23:10.317Z,29.50
2023-01-26T14:28:17.177Z,30.30
2023-01-26T14:33:18.946Z,29.60
2023-01-26T14:38:21.150Z,36.80
2023-01-26T14:43:24.373Z,35.10
2023-01-26T14:48:34.879Z,28.50
2023-01-26T14:53:37.471Z,26.60
2023-01-26T14:58:39.484Z,25.90
2023-01-26T15:03:41.357Z,23.00
2023-01-26T15:08:53.842Z,21.60
2023-01-26T15:13:56.390Z,20.20
2023-01-26T15:19:07.942Z,19.50
2023-01-26T15:24:14.886Z,17.60
2023-01-26T15:29:31.070Z,18.50
2023-01-26T15:34:42.253Z,16.70
2023-01-26T15:39:44.025Z,16.30
2023-01-26T15:44:45.715Z,17.60
2023-01-26T15:54:50.864Z,19.30
2023-01-26T15:59:52.595Z,19.30
2023-01-26T16:04:54.376Z,21.50
2023-01-26T16:14:58.075Z,23.50
2023-01-26T16:20:00.349Z,23.40
2023-01-26T16:25:02.018Z,24.20
2023-01-26T16:35:14.661Z,21.10
2023-01-26T16:40:20.882Z,18.20
2023-01-26T16:45:28.943Z,22.30
2023-01-26T16:50:31.746Z,23.20
2023-01-26T16:55:33.542Z,24.50
2023-01-26T17:05:36.916Z,26.90
2023-01-26T17:10:48.932Z,27.50
2023-01-26T17:16:00.853Z,29.80
2023-01-26T17:26:05.226Z,28.60
2023-01-26T17:36:14.027Z,31.30
2023-01-26T17:41:16.660Z,29.30
2023-01-26T17:46:20.708Z,27.90
2023-01-26T17:51:23.243Z,23.60
2023-01-26T17:56:25.204Z,23.90
2023-01-26T18:01:27.037Z,25.00
2023-01-26T18:06:29.740Z,24.80
2023-01-26T18:11:31.738Z,25.10
2023-01-26T18:16:33.946Z,24.10
2023-01-26T18:21:36.979Z,23.70
2023-01-26T18:26:39.234Z,23.40
2023-01-26T18:31:41.092Z,25.20
2023-01-26T18:36:42.849Z,28.00
2023-01-26T18:41:44.675Z,26.80
2023-01-26T18:46:46.366Z,25.50
2023-01-26T18:56:50.060Z,31.30
2023-01-26T19:01:51.801Z,24.30
2023-01-26T19:06:53.489Z,28.10
2023-01-26T19:16:57.283Z,27.80
2023-01-26T19:21:59.176Z,25.60
2023-01-26T19:27:01.585Z,25.90
2023-01-26T19:32:03.515Z,21.60
2023-01-26T19:37:05.271Z,22.30
2023-01-26T19:42:07.027Z,24.40
2023-01-26T19:52:10.343Z,25.30
2023-01-26T19:57:12.141Z,29.30
2023-01-26T20:02:13.867Z,28.10
2023-01-26T20:07:15.796Z,40.90
2023-01-26T20:12:20.397Z,24.50
2023-01-26T20:17:22.293Z,23.50
2023-01-26T20:22:24.400Z,24.00
2023-01-26T20:27:26.499Z,23.00
2023-01-26T20:32:28.722Z,27.50
2023-01-26T20:37:30.657Z,28.00
2023-01-26T20:42:33.315Z,27.60
2023-01-26T20:47:38.334Z,28.10
2023-01-26T20:52:42.787Z,27.90
2023-01-26T20:57:45.453Z,28.70
2023-01-26T21:07:49.239Z,26.40
2023-01-26T21:12:51.506Z,27.60
2023-01-26T21:17:56.336Z,26.30
2023-01-26T21:22:59.905Z,26.30
2023-01-26T21:28:01.988Z,25.40
2023-01-26T21:33:03.859Z,27.30
2023-01-26T21:38:06.465Z,31.90
2023-01-26T21:43:08.232Z,25.20
2023-01-26T21:48:28.012Z,26.40
2023-01-26T21:53:29.835Z,26.50
2023-01-26T21:58:50.391Z,28.70
2023-01-26T22:03:57.379Z,25.40
2023-01-26T22:08:59.522Z,26.70
2023-01-26T22:14:12.644Z,26.90
2023-01-26T22:19:14.822Z,25.50
2023-01-26T22:24:17.934Z,25.70
2023-01-26T22:29:20.201Z,33.10
2023-01-26T22:34:22.624Z,25.10
2023-01-26T22:39:24.293Z,30.70
2023-01-26T22:44:28.898Z,31.50
2023-01-26T22:49:30.702Z,30.70
2023-01-26T22:54:32.493Z,35.30
2023-01-26T22:59:34.198Z,36.30
2023-01-26T23:09:37.548Z,35.30
2023-01-26T23:14:39.239Z,32.40
2023-01-26T23:25:02.584Z,34.90
2023-01-26T23:35:06.567Z,30.70
2023-01-26T23:40:09.279Z,27.80
2023-01-26T23:45:11.166Z,24.90
2023-01-26T23:50:13.085Z,28.90
2023-01-26T23:55:15.154Z,36.30
